Historique des mesures à Cassis (13260), France
Quotidien Résumé Mars 5, 2017 Unités:  US    Métrique   Métrique/US
« Précédent (Jour)
Suivant (Jour) »
Quotidien Hebdomadaire Mensuel Annuel Période au choix
  Maximum: Minimum: Moyenne:
Température: 32 °F 45.3 °F 49.5 °F
Point de rosée: 32 °F 37.6 °F 41.5 °F
Humidité: Humidity % 61 % 70 %
Vitesse du vent: WindSpeedKMH mph 0.0 mph 3.4 mph
Rafales: WindSpeedGustKMH mph - -
Vent:- - SW
Pression: 0 in 29.7 in -
Précipitations: 25.4 in    
Historical Graphs
 
 
Mesures pour : Mars 5, 2017
Heure Temperature Point de rosée Pression Vent Vitesse du vent Rafales Humidité Pluie (par heure) Conditions
32 °F 32 °F 0 in Calm     Humidity % 0 in SoftwareType W/m2
00:11 48.6 °F 40.8 °F 29.7 in Calm   2.1 mph 75 % 0 in open2300-1.11 W/m2
01:10 46.9 °F 39.4 °F 29.7 in NNW 8.7 mph 8.7 mph 75 % 0 in open2300-1.11 W/m2
02:11 47.5 °F 38.8 °F 29.7 in NW 5.8 mph 5.8 mph 72 % 0 in open2300-1.11 W/m2
03:10 47.5 °F 38.8 °F 29.7 in Calm     72 % 0 in open2300-1.11 W/m2
04:11 46.8 °F 38.7 °F 29.7 in WNW 2.1 mph 2.1 mph 73 % 0 in open2300-1.11 W/m2
05:10 46.2 °F 38.1 °F 29.8 in WNW 7.6 mph 7.6 mph 73 % 0 in open2300-1.11 W/m2
06:11 45.7 °F 37.9 °F 29.8 in North 2.1 mph 13.0 mph 74 % 0 in open2300-1.11 W/m2
07:10 45.3 °F 37.6 °F 29.8 in North 6.4 mph 6.4 mph 74 % 0 in open2300-1.11 W/m2
08:11 46.6 °F 38.8 °F 29.8 in NW 6.1 mph 6.1 mph 74 % 0 in open2300-1.11 W/m2
09:10 48 °F 39 °F 29.8 in WNW 9.0 mph 15.4 mph 71 % 0 in open2300-1.11 W/m2
10:11 49.3 °F 39.6 °F 29.8 in North 13.0 mph 18.0 mph 69 % 0 in open2300-1.11 W/m2
11:10 51.8 °F 39.6 °F 29.8 in Calm   2.6 mph 63 % 0 in open2300-1.11 W/m2
12:11 53.8 °F 40.6 °F 29.8 in SW 8.2 mph 9.7 mph 61 % 0 in open2300-1.11 W/m2
13:10 55.2 °F 42.8 °F 29.8 in Calm     63 % 0 in open2300-1.11 W/m2
14:11 54 °F 42.8 °F 29.8 in Calm     66 % 0 in open2300-1.11 W/m2
15:10 53.2 °F 45.5 °F 29.8 in Calm     75 % 12.7 in open2300-1.11 W/m2
16:11 53.6 °F 46.9 °F 29.8 in NNW 2.6 mph 3.2 mph 78 % 12.7 in open2300-1.11 W/m2
17:10 53.4 °F 46.8 °F 29.8 in Calm     78 % 0 in open2300-1.11 W/m2
18:11 52.9 °F 46.6 °F 29.8 in WNW 2.1 mph 2.1 mph 79 % 0 in open2300-1.11 W/m2
19:10 52.9 °F 46.2 °F 29.8 in North 2.1 mph 7.6 mph 78 % 0 in open2300-1.11 W/m2
20:11 51.6 °F 45.3 °F 29.9 in NNW 2.1 mph 5.5 mph 79 % 0 in open2300-1.11 W/m2
21:10 50.7 °F 44.1 °F 29.9 in NNW 2.1 mph 3.2 mph 78 % 0 in open2300-1.11 W/m2
22:11 50.9 °F 44.6 °F 29.9 in NNW 4.0 mph 4.7 mph 79 % 0 in open2300-1.11 W/m2
23:10 51.4 °F 45.1 °F 29.9 in North 2.1 mph 4.7 mph 79 % 0 in open2300-1.11 W/m2
Observations météo à CASSIS
WU-History script by Weather Underground - 1 mb